Ketchikan International Airport
PAKT : rendu visible

Aérodrome :











RETROUVEZ-NOUS SUR...

 
LOGIN :

S'inscrire | Disclaimer

   EN    FR    IT 

 









Légende :    VFR   VFR Marginal   IFR   IFR Intensif   IFR Très Intensif
Visi : 
Plafond : 
>= 8 km
>= 3000ft
5 à 8 km
1000 à 3000 ft
1500m à 5 km
500 à 1000 ft
800 à 1500m
200 à 500 ft
< 800m
< 200 ft
Symboles :   Orages  Brouillard  Fortes neiges  Fortes précipitations  Vent > 20 kt






- Altitude de l'aérodrome : 89 ft
- Code IATA : KTN


PAKT - Ketchikan International

DERNIER METAR :
  • 151753Z 14010KT 10SM SCT007 BKN013 OVC021 09/08 A2970 RMK RAE16B41E52 SLP057 HARBOR WIND 09015KT P0001 60020 T00890083 10089 20083 53014 VIA AUTODIAL

METARs EXPIRÉS :
  • 151653Z 13014KT 5SM -RA BR SCT007 BKN011 OVC019 09/08 A2968 RMK SLP052 HARBOR WIND 13018KT P0003 T00890083 VIA AUTODIAL
  • 151553Z 15007KT 9SM -RA OVC011 08/08 A2967 RMK SLP047 HARBOR WIND 10016KT P0012 T00830078 VIA AUTODIAL

TAF PAKT
Valide du 15 à 18h jusqu'au 16 à 18h UTC


151731Z 1518/1618 15011KT P6SM -SHRA SCT007 BKN014 OVC025
TEMPO 1518/1522 4SM +SHRA BR SCT007 BKN010 OVC020
FM160700 14011KT P6SM -SHRA SCT025 OVC040
FM161000 14015G25KT 5SM -SHRA BKN040 OVC060 WS020/16045KT
FM161500 14025G35KT 4SM -SHRA BR OVC015 WS020/14060KT AMD LTD TO CLD VIS AND WIND 1606/1615



MET'MAP, la Météo Aéronautique d'un coup d'oeil ! - Copyright ORBIFLY Décembre 2007 - Disclaimer

ORBIFLY MET'MAP TEAM :

Programmation & Développement : Alexandra Zaïnal
Conception & Développement : Baudouin d'Aumeries
Co-Programmation & Développement : Marc-Olivier Méhu
Soutien technique & logistique : Manuel Goepfert

Contact : metmap@orbifly.com




SOURCES & CREDITS :

   NOAA       Earth
Advisory